MET'MAP v2.0
soon released !

Expected late october,
this new version will be
more efficient, smarter,
and hosted on a brand new
server x3 powerfull...
...and still free !


Not compatible ?
Try the mobile version !

LOG IN : | Subscribe | Disclaimer | Who is Orbifly ? |
ICAO code :

TAF - LQBK Banja Luka - 12 Dec 2019 01:13 UTC - Data Source NOAA   


- Airport Elevation : 400 ft
- IATA code : BNX
- No reported NOTAMs.


LQBK - Banja Luka

Latest METAR recorded : 2015/08/11 08:00 LQBK 110800Z VRB02KT CAVOK 26/14 Q1014 NOSIG
TAF TAF LQBK
Valid from the 12 at 00:00 until the 13 at 00:00 UTC


112300Z 1200/1224 06005KT 9999 BKN025 TX02/1212Z TNM00/1206Z
PROB30
TEMPO 1202/1208 4000 BR BKN012 OVC025
PROB40
TEMPO 1212/1215 4000 -RA BR
TEMPO 1215/1224 4000 -RA BR BKN013 OVC020
PROB30
TEMPO 1221/1224 2000 -RASN BKN007 OVC015

Source NOAA


MET'MAP, your aeronautical weather chart ! - Copyright ORBIFLY December 2007

Programming & Development : Alexandra Zaïnal
Co-Developer : Marc-Olivier Méhu
Technical & hardware support : Manuel Goepfert
Concept & Financing : Baudouin d'Aumeries